Time;durP1;ratioP1;P1;durP2;ratioP2;P2;SDS_P1;SDS_P2;PMS_P1;PMS_P2;Temp;Humidity;BMP_temperature;BMP_pressure;BME280_temperature;BME280_humidity;BME280_pressure;Samples;Min_cycle;Max_cycle;Signal;HPM_P1;HPM_P2
2023/07/01 00:00:27;;;;;;;8.73;2.35;;;18.10;99.90;;;;;;5050326;28;20412;-78
2023/07/01 00:02:53;;;;;;;5.85;2.10;;;18.10;99.90;;;;;;5066576;28;20120;-77
2023/07/01 00:05:19;;;;;;;7.28;1.98;;;18.10;99.90;;;;;;5049601;28;20128;-78
2023/07/01 00:07:45;;;;;;;5.38;1.80;;;18.10;99.90;;;;;;5064216;28;20041;-79
2023/07/01 00:10:11;;;;;;;7.07;2.10;;;18.10;99.90;;;;;;5032842;28;20098;-77
2023/07/01 00:12:36;;;;;;;4.63;2.03;;;18.10;99.90;;;;;;5049138;28;20055;-78
2023/07/01 00:15:03;;;;;;;6.97;1.80;;;18.10;99.90;;;;;;5050177;28;20116;-78
2023/07/01 00:17:29;;;;;;;7.68;2.30;;;18.00;99.90;;;;;;5050065;28;20492;-78
2023/07/01 00:19:54;;;;;;;7.97;2.22;;;18.00;99.90;;;;;;5047986;28;20124;-78
2023/07/01 00:22:20;;;;;;;6.70;1.90;;;18.00;99.90;;;;;;5048807;28;22321;-78
2023/07/01 00:24:45;;;;;;;5.57;1.80;;;18.00;99.90;;;;;;5050619;28;20037;-78
2023/07/01 00:27:11;;;;;;;7.22;2.20;;;17.90;99.90;;;;;;5066574;28;20044;-78
2023/07/01 00:29:37;;;;;;;7.32;2.03;;;17.90;99.90;;;;;;5065223;28;20500;-78
2023/07/01 00:32:02;;;;;;;8.45;2.17;;;17.90;99.90;;;;;;5049164;28;20041;-78
2023/07/01 00:34:28;;;;;;;5.25;2.03;;;17.90;99.90;;;;;;5032781;28;20036;-79
2023/07/01 00:36:53;;;;;;;9.15;2.08;;;17.90;99.90;;;;;;5047554;28;20033;-78
2023/07/01 00:39:19;;;;;;;6.85;1.95;;;17.90;99.90;;;;;;5048573;28;20036;-78
2023/07/01 00:41:52;;;;;;;4.78;1.80;;;17.90;99.90;;;;;;5047325;28;20037;-78
2023/07/01 00:44:18;;;;;;;6.55;2.20;;;17.90;99.90;;;;;;5042036;28;20600;-78
2023/07/01 00:46:43;;;;;;;4.72;1.70;;;17.90;99.90;;;;;;5049519;28;20069;-77
2023/07/01 00:49:09;;;;;;;7.25;2.10;;;17.80;99.90;;;;;;5048930;28;20033;-77
2023/07/01 00:51:34;;;;;;;5.18;1.92;;;17.90;99.90;;;;;;5065406;28;20049;-78
2023/07/01 00:54:00;;;;;;;5.22;1.65;;;17.90;99.90;;;;;;5048540;28;20067;-78
2023/07/01 00:56:25;;;;;;;3.60;2.03;;;17.90;99.90;;;;;;5047852;28;20037;-77
2023/07/01 00:58:51;;;;;;;10.15;2.30;;;17.90;99.90;;;;;;5049731;28;20116;-77
2023/07/01 01:01:21;;;;;;;11.57;2.20;;;17.90;99.90;;;;;;5047626;28;20033;-78
2023/07/01 01:03:59;;;;;;;6.25;1.98;;;17.90;99.90;;;;;;5066052;28;20037;-77
2023/07/01 01:06:38;;;;;;;6.82;1.95;;;17.90;99.90;;;;;;5047921;28;20037;-77
2023/07/01 01:09:15;;;;;;;5.78;1.80;;;17.80;99.90;;;;;;5061099;28;20512;-77
2023/07/01 01:11:45;;;;;;;7.07;2.38;;;17.90;99.90;;;;;;5032715;28;20451;-76
2023/07/01 01:14:12;;;;;;;3.38;1.80;;;17.90;99.90;;;;;;5049175;28;20060;-77
2023/07/01 01:16:39;;;;;;;5.93;2.35;;;17.80;99.90;;;;;;5049403;28;20079;-78
2023/07/01 01:19:21;;;;;;;6.43;2.30;;;17.80;99.90;;;;;;5048047;28;20075;-77
2023/07/01 01:21:55;;;;;;;5.28;2.00;;;17.90;99.90;;;;;;5048478;28;20079;-78
2023/07/01 01:24:24;;;;;;;8.52;2.30;;;17.90;99.90;;;;;;5049426;28;20430;-78
2023/07/01 01:26:52;;;;;;;8.98;2.17;;;17.80;99.90;;;;;;5066316;28;20045;-78
2023/07/01 01:29:19;;;;;;;6.30;2.10;;;17.80;99.90;;;;;;5048414;28;20052;-78
2023/07/01 01:31:45;;;;;;;7.13;2.42;;;17.80;99.90;;;;;;5048342;28;20517;-78
2023/07/01 01:34:10;;;;;;;8.30;2.17;;;17.80;99.90;;;;;;5043314;28;20032;-78
2023/07/01 01:36:56;;;;;;;7.55;2.03;;;17.80;99.90;;;;;;5068619;28;20062;-77
2023/07/01 01:39:26;;;;;;;5.75;2.40;;;17.80;99.90;;;;;;5063163;28;20116;-78
2023/07/01 01:42:04;;;;;;;5.45;2.17;;;17.70;99.90;;;;;;5052384;28;20514;-77
2023/07/01 01:44:47;;;;;;;10.35;2.20;;;17.70;99.90;;;;;;5053180;28;20405;-78
2023/07/01 01:47:21;;;;;;;4.78;2.28;;;17.70;99.90;;;;;;5051836;28;20040;-79
2023/07/01 01:49:50;;;;;;;7.47;2.30;;;17.60;99.90;;;;;;5051128;28;20080;-77
2023/07/01 01:52:17;;;;;;;6.85;2.45;;;17.60;99.90;;;;;;5056220;28;20075;-78
2023/07/01 01:54:47;;;;;;;5.85;2.30;;;17.50;99.90;;;;;;5051689;28;20500;-78
2023/07/01 01:57:15;;;;;;;7.15;2.97;;;17.50;99.90;;;;;;5026679;28;20029;-78
2023/07/01 01:59:43;;;;;;;8.68;2.58;;;17.40;99.90;;;;;;5050402;28;20555;-78
2023/07/01 02:02:09;;;;;;;6.28;2.40;;;17.40;99.90;;;;;;5052184;28;20056;-77
2023/07/01 02:04:34;;;;;;;5.10;2.47;;;17.30;99.90;;;;;;5035331;28;20128;-78
2023/07/01 02:07:00;;;;;;;6.90;2.30;;;17.30;99.90;;;;;;5035847;28;20127;-77
2023/07/01 02:09:25;;;;;;;5.82;2.50;;;17.20;99.90;;;;;;5052366;28;20411;-77
2023/07/01 02:11:51;;;;;;;5.28;2.70;;;17.20;99.90;;;;;;5052479;28;20424;-78
2023/07/01 02:14:16;;;;;;;6.68;2.60;;;17.20;99.90;;;;;;5068807;28;20578;-77
2023/07/01 02:16:42;;;;;;;7.50;2.38;;;17.10;99.90;;;;;;5036066;28;20037;-77
2023/07/01 02:19:08;;;;;;;3.90;2.15;;;17.10;99.90;;;;;;5068930;28;20037;-79
2023/07/01 02:21:34;;;;;;;5.70;2.40;;;17.10;99.90;;;;;;5069043;28;20500;-78
2023/07/01 02:23:59;;;;;;;6.13;2.72;;;17.20;99.90;;;;;;5068478;28;20051;-77
2023/07/01 02:26:25;;;;;;;8.73;2.83;;;17.20;99.90;;;;;;5069046;28;20124;-77
2023/07/01 02:28:51;;;;;;;5.28;2.75;;;17.10;99.90;;;;;;5068117;28;20045;-77
2023/07/01 02:31:18;;;;;;;9.48;3.28;;;17.10;99.90;;;;;;5068661;28;20106;-78
2023/07/01 02:33:44;;;;;;;5.93;2.53;;;17.10;99.90;;;;;;5068058;28;20451;-78
2023/07/01 02:36:10;;;;;;;9.05;2.72;;;17.00;99.90;;;;;;5034778;28;20083;-78
2023/07/01 02:38:35;;;;;;;10.30;2.90;;;17.00;99.90;;;;;;5068329;28;20037;-79
2023/07/01 02:41:01;;;;;;;7.15;2.50;;;17.00;99.90;;;;;;5068854;28;20041;-78
2023/07/01 02:43:27;;;;;;;8.65;2.75;;;17.00;99.90;;;;;;5053253;28;20115;-79
2023/07/01 02:45:52;;;;;;;7.75;2.65;;;17.00;99.90;;;;;;5068397;28;20045;-79
2023/07/01 02:48:18;;;;;;;6.70;2.92;;;17.00;99.90;;;;;;5052153;28;20098;-79
2023/07/01 02:50:43;;;;;;;8.10;3.38;;;17.10;99.90;;;;;;5051763;28;20565;-73
2023/07/01 02:53:09;;;;;;;9.95;3.38;;;17.10;99.90;;;;;;5051618;28;20041;-79
2023/07/01 02:55:35;;;;;;;6.25;3.45;;;17.10;99.90;;;;;;5051512;28;20485;-76
2023/07/01 02:58:01;;;;;;;5.78;3.38;;;17.10;99.90;;;;;;5068423;28;20069;-75
2023/07/01 03:00:26;;;;;;;8.63;3.40;;;17.10;99.90;;;;;;5051785;28;20076;-79
2023/07/01 03:02:52;;;;;;;6.57;3.88;;;17.10;99.90;;;;;;5067920;28;20044;-78
2023/07/01 03:05:21;;;;;;;9.90;3.47;;;17.10;99.90;;;;;;5068179;28;20043;-78
2023/07/01 03:07:47;;;;;;;10.50;4.10;;;17.10;99.90;;;;;;5035386;28;20044;-80
2023/07/01 03:10:13;;;;;;;9.48;4.05;;;17.10;99.90;;;;;;5052089;28;20041;-78
2023/07/01 03:12:39;;;;;;;5.50;3.50;;;17.10;99.90;;;;;;5034678;28;20381;-78
2023/07/01 03:15:05;;;;;;;9.93;3.97;;;17.00;99.90;;;;;;5051756;28;20120;-79
2023/07/01 03:17:31;;;;;;;7.85;3.65;;;17.00;99.90;;;;;;5031414;28;20077;-79
2023/07/01 03:19:57;;;;;;;8.50;4.15;;;17.00;99.90;;;;;;5046733;28;20096;-79
2023/07/01 03:22:23;;;;;;;10.75;4.20;;;17.00;99.90;;;;;;5050674;28;20498;-77
2023/07/01 03:24:48;;;;;;;5.15;4.10;;;16.80;99.90;;;;;;5048474;28;20076;-79
2023/07/01 03:27:14;;;;;;;8.73;4.43;;;16.70;99.90;;;;;;5050050;28;20497;-79
2023/07/01 03:29:39;;;;;;;6.68;4.65;;;16.60;99.90;;;;;;5033887;28;20123;-79
2023/07/01 03:32:05;;;;;;;8.57;4.32;;;16.60;99.90;;;;;;5034091;28;20048;-80
2023/07/01 03:34:31;;;;;;;9.25;4.53;;;16.50;99.90;;;;;;5050763;28;20033;-80
2023/07/01 03:36:57;;;;;;;7.03;4.18;;;16.50;99.90;;;;;;5050792;28;20040;-78
2023/07/01 03:39:22;;;;;;;9.93;4.68;;;16.40;99.90;;;;;;5051066;28;20033;-80
2023/07/01 03:41:48;;;;;;;8.13;4.30;;;16.40;99.90;;;;;;5067527;28;20048;-80
2023/07/01 03:44:13;;;;;;;8.30;4.20;;;16.40;99.90;;;;;;5067391;28;20116;-80
2023/07/01 03:46:39;;;;;;;10.85;4.60;;;16.40;99.90;;;;;;5050871;28;20040;-78
2023/07/01 03:49:04;;;;;;;7.25;4.03;;;16.40;99.90;;;;;;5051066;28;20044;-80
2023/07/01 03:51:32;;;;;;;9.40;4.00;;;16.40;99.90;;;;;;5050466;28;20041;-80
2023/07/01 03:53:58;;;;;;;8.82;4.00;;;16.40;99.90;;;;;;5050324;28;20044;-80
2023/07/01 03:56:23;;;;;;;6.75;4.18;;;16.40;99.90;;;;;;5066366;28;20045;-80
2023/07/01 03:58:51;;;;;;;12.18;4.57;;;16.40;99.90;;;;;;5049691;28;20037;-79
2023/07/01 04:01:17;;;;;;;6.63;3.92;;;16.40;99.90;;;;;;5050476;28;20460;-78
2023/07/01 04:03:43;;;;;;;8.20;3.85;;;16.40;99.90;;;;;;5066823;28;20549;-80
2023/07/01 04:06:09;;;;;;;6.07;3.83;;;16.40;99.90;;;;;;5064820;28;20040;-78
2023/07/01 04:08:34;;;;;;;9.40;3.85;;;16.40;99.90;;;;;;5049411;28;20048;-80
2023/07/01 04:11:00;;;;;;;5.95;3.60;;;16.40;99.90;;;;;;5049613;28;20523;-79
2023/07/01 04:13:26;;;;;;;8.55;3.95;;;16.40;99.90;;;;;;5049334;28;20116;-79
2023/07/01 04:15:52;;;;;;;6.65;3.28;;;16.40;99.90;;;;;;5033444;28;20037;-78
2023/07/01 04:18:17;;;;;;;9.60;4.00;;;16.50;99.90;;;;;;5050017;28;20409;-79
2023/07/01 04:20:43;;;;;;;5.10;3.35;;;16.50;99.90;;;;;;5048402;28;20052;-78
2023/07/01 04:23:09;;;;;;;7.75;3.90;;;16.50;99.90;;;;;;5066348;28;20041;-80
2023/07/01 04:25:34;;;;;;;4.80;3.42;;;16.50;99.90;;;;;;5066680;28;20041;-79
2023/07/01 04:28:02;;;;;;;7.07;3.65;;;16.60;99.90;;;;;;5050134;28;20041;-81
2023/07/01 04:30:27;;;;;;;6.05;3.40;;;16.50;99.90;;;;;;5050039;28;20520;-79
2023/07/01 04:32:53;;;;;;;5.90;3.63;;;16.60;99.90;;;;;;5049491;28;20043;-79
2023/07/01 04:35:18;;;;;;;7.45;3.85;;;16.60;99.90;;;;;;5049000;28;20574;-80
2023/07/01 04:37:44;;;;;;;7.25;3.60;;;16.70;99.90;;;;;;5033629;28;20116;-80
2023/07/01 04:40:10;;;;;;;4.72;3.30;;;16.70;99.90;;;;;;5066852;28;20087;-79
2023/07/01 04:42:44;;;;;;;5.80;3.30;;;16.80;99.90;;;;;;5066303;28;20037;-79
2023/07/01 04:45:09;;;;;;;6.70;3.63;;;16.80;99.90;;;;;;5049998;28;20037;-78
2023/07/01 04:47:37;;;;;;;5.07;3.35;;;16.80;99.90;;;;;;5048567;28;20116;-80
2023/07/01 04:50:02;;;;;;;5.88;3.55;;;16.80;99.90;;;;;;5048908;28;20052;-79
2023/07/01 04:52:28;;;;;;;6.85;3.88;;;16.80;99.90;;;;;;5049315;28;20045;-78
2023/07/01 04:54:53;;;;;;;9.35;4.53;;;16.90;99.90;;;;;;5049855;28;20067;-79
2023/07/01 04:57:19;;;;;;;7.57;4.32;;;16.90;99.90;;;;;;5049887;28;20041;-80
2023/07/01 04:59:45;;;;;;;5.75;4.07;;;16.90;99.90;;;;;;5032880;28;20037;-79
2023/07/01 05:02:10;;;;;;;6.43;4.68;;;16.90;99.90;;;;;;5048805;28;20041;-80
2023/07/01 05:04:39;;;;;;;6.82;4.72;;;16.90;99.90;;;;;;5047862;28;20572;-80
2023/07/01 05:07:04;;;;;;;8.98;5.00;;;16.90;99.90;;;;;;5047653;28;20504;-80
2023/07/01 05:09:30;;;;;;;10.18;5.32;;;16.90;99.90;;;;;;5051290;28;20056;-79
2023/07/01 05:11:56;;;;;;;11.63;4.70;;;16.90;99.90;;;;;;5052138;28;20033;-79
2023/07/01 05:14:21;;;;;;;8.43;4.95;;;16.90;99.90;;;;;;5051709;28;20404;-78
2023/07/01 05:16:47;;;;;;;7.78;4.72;;;17.00;99.90;;;;;;5051744;28;20067;-81
2023/07/01 05:19:12;;;;;;;8.32;5.00;;;16.90;99.90;;;;;;5052418;28;20067;-79
2023/07/01 05:21:49;;;;;;;12.48;4.70;;;16.90;99.90;;;;;;5054118;28;20129;-79
2023/07/01 05:24:15;;;;;;;6.90;4.85;;;17.00;99.90;;;;;;5051774;28;20072;-79
2023/07/01 05:26:44;;;;;;;8.52;4.50;;;17.00;99.90;;;;;;5054121;28;20071;-80
2023/07/01 05:29:09;;;;;;;6.15;4.20;;;17.00;99.90;;;;;;5053348;28;20045;-78
2023/07/01 05:31:35;;;;;;;7.30;4.72;;;17.10;99.90;;;;;;5053427;28;20408;-78
2023/07/01 05:34:01;;;;;;;10.30;4.65;;;17.10;99.90;;;;;;5053194;28;20090;-80
2023/07/01 05:36:26;;;;;;;9.20;4.53;;;17.10;99.90;;;;;;5054205;28;20033;-79
2023/07/01 05:38:52;;;;;;;8.35;4.80;;;17.10;99.90;;;;;;5054820;28;20476;-79
2023/07/01 05:41:17;;;;;;;8.68;4.30;;;17.20;99.90;;;;;;5053971;28;20036;-80
2023/07/01 05:43:43;;;;;;;7.03;4.45;;;17.10;99.90;;;;;;5053007;28;20045;-79
2023/07/01 05:46:08;;;;;;;7.50;4.43;;;17.10;99.90;;;;;;5052942;28;20076;-80
2023/07/01 05:48:34;;;;;;;6.15;4.63;;;17.10;99.90;;;;;;5053213;28;20036;-79
2023/07/01 05:50:59;;;;;;;7.97;4.80;;;17.20;99.90;;;;;;5053271;28;20451;-81
2023/07/01 05:53:25;;;;;;;7.90;4.32;;;17.20;99.90;;;;;;5053070;28;20074;-80
2023/07/01 05:55:50;;;;;;;7.10;4.57;;;17.20;99.90;;;;;;5053541;28;20121;-81
2023/07/01 05:58:16;;;;;;;7.65;4.82;;;17.20;99.90;;;;;;5051237;28;20045;-80
2023/07/01 06:00:41;;;;;;;8.10;4.70;;;17.20;99.90;;;;;;5052670;28;20079;-80
2023/07/01 06:03:08;;;;;;;8.70;5.07;;;17.10;99.90;;;;;;5052213;28;20041;-79
2023/07/01 06:05:33;;;;;;;8.35;5.20;;;17.20;99.90;;;;;;5051074;28;20704;-79
2023/07/01 06:07:59;;;;;;;5.95;4.97;;;17.20;99.90;;;;;;5049649;28;20041;-79
2023/07/01 06:10:24;;;;;;;7.75;5.25;;;17.20;99.90;;;;;;5054456;28;20047;-79
2023/07/01 06:12:50;;;;;;;7.70;5.13;;;17.10;99.90;;;;;;5050661;28;20060;-80
2023/07/01 06:15:15;;;;;;;7.00;5.05;;;17.10;99.90;;;;;;5051585;28;20063;-78
2023/07/01 06:17:41;;;;;;;5.57;5.00;;;17.10;99.90;;;;;;5051345;28;20442;-79
2023/07/01 06:20:07;;;;;;;11.45;5.82;;;17.10;99.90;;;;;;5051448;28;20037;-79
2023/07/01 06:22:32;;;;;;;12.93;6.10;;;17.10;99.90;;;;;;5051697;28;20048;-79
2023/07/01 06:24:58;;;;;;;8.52;5.32;;;17.10;99.90;;;;;;5052126;28;20041;-79
2023/07/01 06:27:24;;;;;;;9.75;6.00;;;17.10;99.90;;;;;;5035495;28;20045;-79
2023/07/01 06:29:49;;;;;;;12.07;6.00;;;17.10;99.90;;;;;;5034919;28;20087;-78
2023/07/01 06:32:15;;;;;;;10.38;5.85;;;17.00;99.90;;;;;;5051360;28;20040;-77
2023/07/01 06:34:40;;;;;;;7.13;5.90;;;17.00;99.90;;;;;;5051852;28;20036;-78
2023/07/01 06:37:06;;;;;;;8.60;5.95;;;17.00;99.90;;;;;;5051632;28;20480;-78
2023/07/01 06:39:32;;;;;;;8.38;5.25;;;17.00;99.90;;;;;;5051887;28;20037;-78
2023/07/01 06:41:57;;;;;;;6.63;5.28;;;17.00;99.90;;;;;;5051608;28;20449;-78
2023/07/01 06:44:23;;;;;;;6.55;5.25;;;17.00;99.90;;;;;;5050251;28;20064;-79
2023/07/01 06:46:48;;;;;;;6.43;5.45;;;17.00;99.90;;;;;;5032356;28;20511;-79
2023/07/01 06:49:14;;;;;;;5.82;5.03;;;17.10;99.90;;;;;;5049426;28;20040;-78
2023/07/01 06:51:41;;;;;;;8.68;5.93;;;17.00;99.90;;;;;;5052398;28;20601;-78
2023/07/01 06:54:07;;;;;;;5.97;4.95;;;17.10;99.90;;;;;;5051032;28;20087;-79
2023/07/01 06:56:33;;;;;;;5.80;4.95;;;17.10;99.90;;;;;;5051341;28;20488;-78
2023/07/01 06:58:58;;;;;;;6.28;5.43;;;17.20;99.90;;;;;;5048075;28;20679;-78
2023/07/01 07:01:24;;;;;;;7.05;5.28;;;17.20;99.90;;;;;;5048413;28;20045;-77
2023/07/01 07:03:49;;;;;;;6.72;5.07;;;17.20;99.90;;;;;;5044173;28;20090;-79
2023/07/01 07:06:15;;;;;;;5.60;4.85;;;17.10;99.90;;;;;;5048059;28;20029;-79
2023/07/01 07:08:40;;;;;;;5.90;5.13;;;17.20;99.90;;;;;;5033597;28;20036;-78
2023/07/01 07:11:06;;;;;;;5.38;4.88;;;17.20;99.90;;;;;;5050139;28;20066;-77
2023/07/01 07:13:31;;;;;;;5.32;4.70;;;17.20;99.90;;;;;;5049959;28;20029;-78
2023/07/01 07:15:57;;;;;;;5.63;4.50;;;17.30;99.90;;;;;;5049118;28;20037;-77
2023/07/01 07:18:22;;;;;;;8.68;4.90;;;17.30;99.90;;;;;;5049570;28;20033;-78
2023/07/01 07:20:48;;;;;;;4.90;4.47;;;17.40;99.90;;;;;;5045773;28;20056;-80
2023/07/01 07:23:13;;;;;;;4.80;4.28;;;17.30;99.90;;;;;;5033284;28;20076;-79
2023/07/01 07:25:39;;;;;;;5.15;4.45;;;17.30;99.90;;;;;;5049598;28;20094;-78
2023/07/01 07:28:04;;;;;;;6.30;4.40;;;17.40;99.90;;;;;;5051554;28;20051;-78
2023/07/01 07:30:30;;;;;;;4.80;4.30;;;17.40;99.90;;;;;;5049604;28;20036;-78
2023/07/01 07:32:56;;;;;;;4.85;4.35;;;17.50;99.90;;;;;;5048863;28;20033;-79
2023/07/01 07:35:22;;;;;;;4.60;4.20;;;17.50;99.90;;;;;;5050821;28;20116;-78
2023/07/01 07:37:48;;;;;;;4.75;4.35;;;17.50;99.90;;;;;;5050429;28;20036;-78
2023/07/01 07:40:14;;;;;;;5.38;4.10;;;17.50;99.90;;;;;;5050465;28;20029;-78
2023/07/01 07:42:42;;;;;;;5.43;4.03;;;17.50;99.90;;;;;;5050138;28;20094;-78
2023/07/01 07:45:08;;;;;;;4.55;3.80;;;17.50;99.90;;;;;;5049571;28;20037;-79
2023/07/01 07:47:34;;;;;;;4.15;3.75;;;17.50;99.90;;;;;;5033886;28;20036;-79
2023/07/01 07:50:01;;;;;;;3.92;3.63;;;17.60;99.90;;;;;;5049430;28;20483;-78
2023/07/01 07:52:27;;;;;;;4.13;3.72;;;17.60;99.90;;;;;;5050104;28;20033;-79
2023/07/01 07:54:52;;;;;;;5.45;4.40;;;17.70;99.90;;;;;;5050088;28;20067;-79
2023/07/01 07:57:18;;;;;;;4.45;4.03;;;17.70;99.90;;;;;;5050151;28;20029;-79
2023/07/01 07:59:44;;;;;;;4.32;3.80;;;17.80;99.90;;;;;;5050161;28;20246;-78
2023/07/01 08:02:10;;;;;;;5.22;4.05;;;17.80;99.90;;;;;;5049605;28;20145;-78
2023/07/01 08:04:36;;;;;;;5.75;4.07;;;17.90;99.90;;;;;;5033138;28;20118;-78
2023/07/01 08:07:02;;;;;;;4.63;4.10;;;18.00;99.90;;;;;;5031819;28;20052;-77
2023/07/01 08:09:28;;;;;;;4.45;4.05;;;18.10;99.90;;;;;;5043313;28;20044;-77
2023/07/01 08:11:58;;;;;;;4.53;4.13;;;18.20;99.90;;;;;;5049350;28;20037;-78
2023/07/01 08:14:27;;;;;;;5.10;4.30;;;18.20;99.90;;;;;;5049630;28;20040;-78
2023/07/01 08:16:58;;;;;;;5.22;4.32;;;18.30;99.90;;;;;;5049859;28;20036;-78
2023/07/01 08:19:23;;;;;;;5.82;4.32;;;18.30;99.90;;;;;;5043646;28;20120;-78
2023/07/01 08:21:49;;;;;;;4.35;3.95;;;18.30;99.90;;;;;;5049934;28;20120;-78
2023/07/01 08:24:15;;;;;;;4.50;4.10;;;18.30;99.90;;;;;;5049393;28;20090;-78
2023/07/01 08:26:41;;;;;;;4.60;4.10;;;18.40;99.90;;;;;;5049696;28;20033;-78
2023/07/01 08:29:09;;;;;;;4.80;4.35;;;18.40;99.90;;;;;;5049468;28;20036;-78
2023/07/01 08:31:34;;;;;;;4.35;3.88;;;18.30;99.90;;;;;;5049645;28;20033;-78
2023/07/01 08:34:01;;;;;;;4.53;4.10;;;18.40;99.90;;;;;;5049157;28;20094;-78
2023/07/01 08:36:27;;;;;;;4.97;3.83;;;18.40;99.90;;;;;;5033225;28;20520;-77
2023/07/01 08:38:53;;;;;;;4.85;4.25;;;18.30;99.90;;;;;;5049052;28;20083;-77
2023/07/01 08:41:21;;;;;;;4.22;3.85;;;18.40;99.90;;;;;;5046699;28;20419;-77
2023/07/01 08:43:50;;;;;;;4.50;4.10;;;18.40;99.90;;;;;;5046719;28;20044;-78
2023/07/01 08:46:18;;;;;;;3.83;3.53;;;18.50;99.90;;;;;;5049253;28;20040;-77
2023/07/01 08:48:45;;;;;;;3.88;3.58;;;18.50;99.90;;;;;;5048876;28;20412;-78
2023/07/01 08:51:31;;;;;;;3.97;3.38;;;18.60;99.90;;;;;;5049002;28;20044;-77
2023/07/01 08:54:00;;;;;;;4.82;3.53;;;18.70;99.90;;;;;;5046611;28;20533;-78
2023/07/01 08:56:26;;;;;;;3.88;3.53;;;18.80;99.90;;;;;;5049136;28;20036;-78
2023/07/01 08:58:52;;;;;;;4.00;3.60;;;18.80;99.90;;;;;;5048469;28;20507;-77
2023/07/01 09:01:18;;;;;;;3.85;3.50;;;19.00;99.90;;;;;;5047890;28;20049;-77
2023/07/01 09:03:46;;;;;;;3.95;3.65;;;19.00;99.90;;;;;;5046809;28;20116;-77
2023/07/01 09:06:12;;;;;;;4.57;3.45;;;19.00;99.90;;;;;;5045992;28;20047;-78
2023/07/01 09:08:38;;;;;;;3.90;3.60;;;19.10;99.90;;;;;;5032524;28;20033;-79
2023/07/01 09:11:11;;;;;;;4.50;3.63;;;19.10;99.90;;;;;;5047388;28;20546;-78
2023/07/01 09:13:37;;;;;;;3.90;3.50;;;19.10;99.90;;;;;;5047947;28;20029;-79
2023/07/01 09:16:03;;;;;;;4.30;3.90;;;19.20;99.90;;;;;;5048076;28;20132;-78
2023/07/01 09:18:29;;;;;;;3.97;3.58;;;19.20;99.90;;;;;;5047104;28;21283;-77
2023/07/01 09:20:55;;;;;;;3.80;3.40;;;19.10;99.90;;;;;;5048310;28;20037;-77
2023/07/01 09:23:32;;;;;;;3.88;3.58;;;19.10;99.90;;;;;;5056257;28;20090;-78
2023/07/01 09:26:17;;;;;;;3.95;3.58;;;19.10;99.90;;;;;;5030170;28;20037;-76
2023/07/01 09:28:44;;;;;;;4.68;3.70;;;19.00;99.90;;;;;;5045158;28;20094;-78
2023/07/01 09:31:12;;;;;;;3.58;3.28;;;19.00;99.90;;;;;;5063869;28;20106;-77
2023/07/01 09:33:39;;;;;;;3.88;3.58;;;19.00;99.90;;;;;;5050996;28;20037;-77
2023/07/01 09:36:06;;;;;;;5.60;3.83;;;18.90;99.90;;;;;;5046075;28;20124;-77
2023/07/01 09:38:33;;;;;;;3.70;3.30;;;19.00;99.90;;;;;;5049194;28;20032;-77
2023/07/01 09:41:13;;;;;;;3.38;3.08;;;19.10;99.90;;;;;;5048003;28;20037;-77
2023/07/01 09:43:41;;;;;;;3.45;3.15;;;19.10;99.90;;;;;;5048820;28;20408;-77
2023/07/01 09:46:08;;;;;;;3.50;3.20;;;19.20;99.90;;;;;;5047871;28;20041;-77
2023/07/01 09:48:34;;;;;;;4.35;3.30;;;19.10;99.90;;;;;;5043371;28;20660;-77
2023/07/01 09:51:03;;;;;;;3.75;3.22;;;19.10;99.90;;;;;;5047073;28;20045;-77
2023/07/01 09:53:36;;;;;;;3.97;2.92;;;19.10;99.90;;;;;;5047900;28;20435;-77
2023/07/01 09:56:06;;;;;;;3.28;2.97;;;19.10;99.90;;;;;;5051386;28;20069;-78
2023/07/01 09:58:33;;;;;;;3.70;3.20;;;19.00;99.90;;;;;;5052317;28;20112;-77
2023/07/01 10:00:59;;;;;;;3.92;3.03;;;19.10;99.90;;;;;;5060055;28;20037;-77
2023/07/01 10:03:26;;;;;;;3.33;3.00;;;19.00;99.90;;;;;;5050445;28;20465;-77
2023/07/01 10:05:52;;;;;;;4.22;2.78;;;19.10;99.90;;;;;;5052836;28;20041;-77
2023/07/01 10:08:17;;;;;;;2.20;2.00;;;19.20;99.90;;;;;;5050907;28;20116;-77
2023/07/01 10:10:44;;;;;;;2.40;2.20;;;19.20;99.90;;;;;;5058135;28;20469;-78
2023/07/01 10:13:11;;;;;;;3.05;2.00;;;19.40;99.90;;;;;;5051951;28;20083;-77
2023/07/01 10:15:39;;;;;;;1.90;1.70;;;19.50;99.90;;;;;;5052134;28;20453;-77
2023/07/01 10:18:22;;;;;;;1.77;1.40;;;19.50;99.90;;;;;;5051963;28;20048;-77
2023/07/01 10:20:48;;;;;;;3.35;1.27;;;19.40;99.90;;;;;;5058424;28;20045;-78
2023/07/01 10:23:14;;;;;;;1.00;0.90;;;19.40;99.90;;;;;;5051208;28;20325;-77
2023/07/01 10:25:41;;;;;;;1.35;0.80;;;19.40;99.90;;;;;;5051757;28;20290;-78
2023/07/01 10:28:08;;;;;;;1.10;0.80;;;19.40;99.90;;;;;;5052343;28;20060;-78
2023/07/01 10:30:53;;;;;;;2.33;0.93;;;19.40;99.90;;;;;;5051840;28;20404;-78
2023/07/01 10:33:35;;;;;;;1.00;0.80;;;19.60;99.90;;;;;;5051910;28;20030;-78
2023/07/01 10:36:06;;;;;;;2.13;1.20;;;19.60;99.90;;;;;;5056168;28;20045;-78
2023/07/01 10:38:33;;;;;;;2.10;1.20;;;19.70;99.90;;;;;;5049348;28;20041;-78
2023/07/01 10:40:59;;;;;;;1.42;1.10;;;19.70;99.90;;;;;;5033882;28;20047;-78
2023/07/01 10:43:38;;;;;;;2.15;1.15;;;19.60;99.90;;;;;;5049271;28;20209;-77
2023/07/01 10:46:08;;;;;;;1.83;1.42;;;19.60;99.90;;;;;;5049642;28;20102;-77
2023/07/01 10:48:38;;;;;;;2.88;1.60;;;19.50;99.90;;;;;;5049550;28;20037;-77
2023/07/01 10:51:05;;;;;;;3.13;1.65;;;19.50;99.90;;;;;;5047975;28;20559;-78
2023/07/01 10:53:31;;;;;;;4.30;1.90;;;19.60;99.90;;;;;;5048373;28;20025;-78
2023/07/01 10:56:27;;;;;;;3.40;2.35;;;19.70;99.90;;;;;;5047444;28;20044;-78
2023/07/01 10:59:22;;;;;;;3.72;2.38;;;19.90;99.90;;;;;;5041704;28;20500;-77
2023/07/01 11:02:00;;;;;;;4.28;2.97;;;20.00;99.90;;;;;;5048008;28;20036;-78
2023/07/01 11:04:51;;;;;;;3.60;3.08;;;20.00;99.90;;;;;;5049132;28;20037;-78
2023/07/01 11:07:27;;;;;;;4.13;2.90;;;19.90;99.90;;;;;;5033362;28;20059;-77
2023/07/01 11:09:55;;;;;;;4.05;3.10;;;19.80;99.90;;;;;;5053719;28;20095;-77
2023/07/01 11:12:21;;;;;;;3.40;2.97;;;19.70;99.90;;;;;;5050863;28;20056;-77
2023/07/01 11:14:46;;;;;;;3.90;2.85;;;19.60;99.90;;;;;;5050542;28;20400;-77
2023/07/01 11:17:17;;;;;;;4.50;2.97;;;19.50;99.90;;;;;;5049923;28;20032;-77
2023/07/01 11:19:46;;;;;;;3.83;2.72;;;19.50;99.90;;;;;;5050339;28;20041;-77
2023/07/01 11:22:13;;;;;;;4.05;2.60;;;19.50;99.90;;;;;;5045929;28;20095;-78
2023/07/01 11:24:39;;;;;;;3.88;2.47;;;19.70;99.90;;;;;;5048859;28;20553;-77
2023/07/01 11:27:08;;;;;;;3.03;2.25;;;19.80;99.90;;;;;;5049753;28;20033;-77
2023/07/01 11:29:34;;;;;;;3.88;2.10;;;19.80;99.90;;;;;;5048164;28;20425;-77
2023/07/01 11:32:06;;;;;;;3.20;2.28;;;19.80;99.90;;;;;;5048328;28;20656;-77
2023/07/01 11:34:32;;;;;;;2.78;2.20;;;19.90;99.90;;;;;;5049124;28;20032;-77
2023/07/01 11:36:59;;;;;;;3.63;2.70;;;20.00;99.90;;;;;;5047934;28;20045;-77
2023/07/01 11:39:26;;;;;;;3.78;2.45;;;20.20;99.90;;;;;;5048782;28;20090;-77
2023/07/01 11:41:54;;;;;;;3.17;2.50;;;20.40;99.90;;;;;;5044145;28;20098;-78
2023/07/01 11:44:25;;;;;;;3.55;3.20;;;20.60;99.90;;;;;;5038773;28;20037;-77
2023/07/01 11:46:52;;;;;;;5.55;3.13;;;20.80;99.90;;;;;;5055196;28;20505;-77
2023/07/01 11:49:29;;;;;;;5.10;3.40;;;20.90;99.90;;;;;;5030902;28;20037;-77
2023/07/01 11:51:56;;;;;;;6.63;3.80;;;21.00;99.90;;;;;;5060400;28;20052;-77
2023/07/01 11:54:41;;;;;;;4.40;3.58;;;20.80;99.90;;;;;;5050462;28;20029;-77
2023/07/01 11:57:15;;;;;;;5.18;3.70;;;20.70;99.90;;;;;;5052102;28;20096;-76
2023/07/01 11:59:58;;;;;;;6.45;3.50;;;20.30;99.90;;;;;;5040727;28;20029;-77
2023/07/01 12:02:31;;;;;;;6.00;4.05;;;19.90;99.90;;;;;;5043595;28;20033;-77
2023/07/01 12:04:58;;;;;;;7.75;4.40;;;19.80;99.90;;;;;;5067107;28;20063;-76
2023/07/01 12:07:24;;;;;;;6.28;4.53;;;19.70;99.90;;;;;;5062996;28;20041;-78
2023/07/01 12:09:50;;;;;;;6.40;4.60;;;19.70;99.90;;;;;;5049463;28;20047;-77
2023/07/01 12:12:31;;;;;;;10.02;5.68;;;19.80;99.90;;;;;;5051892;28;20551;-77
2023/07/01 12:15:01;;;;;;;7.20;5.03;;;20.00;99.90;;;;;;5054874;28;20040;-77
2023/07/01 12:17:31;;;;;;;9.00;6.13;;;20.20;99.90;;;;;;5063785;28;20032;-77
2023/07/01 12:19:59;;;;;;;7.22;6.05;;;20.70;99.90;;;;;;5070206;28;20048;-77
2023/07/01 12:22:27;;;;;;;7.13;6.38;;;21.30;99.90;;;;;;5037081;28;20025;-77
2023/07/01 12:24:57;;;;;;;10.10;5.50;;;21.60;99.90;;;;;;5046335;28;20522;-77
2023/07/01 12:27:23;;;;;;;8.38;5.70;;;21.60;99.90;;;;;;5054844;28;20065;-77
2023/07/01 12:29:49;;;;;;;6.65;5.57;;;21.30;99.90;;;;;;5066345;28;20118;-77
2023/07/01 12:32:14;;;;;;;51.45;12.75;;;21.00;99.90;;;;;;5049106;28;20056;-76
2023/07/01 12:34:40;;;;;;;41.00;10.48;;;20.80;99.90;;;;;;5052262;28;20037;-78
2023/07/01 12:37:07;;;;;;;8.68;4.80;;;20.80;99.90;;;;;;5045242;28;20088;-78
2023/07/01 12:39:33;;;;;;;16.20;5.68;;;21.10;99.90;;;;;;5052432;28;20407;-78
2023/07/01 12:41:59;;;;;;;7.65;4.38;;;21.30;99.90;;;;;;5050173;28;20037;-78
2023/07/01 12:44:25;;;;;;;6.22;4.20;;;21.40;99.90;;;;;;5053771;28;20060;-78
2023/07/01 12:46:51;;;;;;;4.43;3.60;;;21.50;99.90;;;;;;5047341;28;20059;-79